Time;durP1;ratioP1;P1;durP2;ratioP2;P2;SDS_P1;SDS_P2;PMS_P1;PMS_P2;Temp;Humidity;BMP_temperature;BMP_pressure;BME280_temperature;BME280_humidity;BME280_pressure;Samples;Min_cycle;Max_cycle;Signal;HPM_P1;HPM_P2
2023/03/11 00:01:12;;;;;;;2.13;0.80;;;5.70;99.00;;;;;;10086625;28;20360;-66
2023/03/11 00:06:03;;;;;;;3.15;0.90;;;5.50;99.10;;;;;;10100851;28;20095;-64
2023/03/11 00:10:57;;;;;;;0.98;0.80;;;5.50;99.20;;;;;;10085843;28;20025;-66
2023/03/11 00:15:50;;;;;;;2.00;0.88;;;5.40;99.20;;;;;;10100460;28;20090;-68
2023/03/11 00:20:43;;;;;;;1.73;0.90;;;5.40;99.20;;;;;;10100603;28;20179;-64
2023/03/11 00:25:36;;;;;;;4.50;1.10;;;5.30;99.30;;;;;;10079604;28;20037;-64
2023/03/11 00:30:27;;;;;;;4.25;1.10;;;5.30;99.40;;;;;;10098543;28;20025;-66
2023/03/11 00:35:23;;;;;;;2.45;1.05;;;5.40;99.40;;;;;;10100003;28;20036;-65
2023/03/11 00:40:16;;;;;;;1.30;0.95;;;5.30;99.30;;;;;;10099053;28;20351;-66
2023/03/11 00:45:07;;;;;;;2.28;0.98;;;5.30;99.50;;;;;;10080284;28;20507;-67
2023/03/11 00:49:58;;;;;;;2.08;1.10;;;5.30;99.60;;;;;;10094696;28;20035;-66
2023/03/11 00:54:48;;;;;;;2.60;1.05;;;5.20;99.60;;;;;;10099232;28;20072;-67
2023/03/11 00:59:39;;;;;;;2.00;1.10;;;5.30;99.60;;;;;;10088121;28;20026;-64
2023/03/11 01:04:29;;;;;;;1.52;0.90;;;5.20;99.80;;;;;;10098326;28;20035;-66
2023/03/11 01:09:20;;;;;;;3.13;1.55;;;5.20;99.70;;;;;;10085037;28;20036;-64
2023/03/11 01:14:11;;;;;;;1.63;1.00;;;5.10;99.80;;;;;;10098289;28;20033;-65
2023/03/11 01:19:02;;;;;;;4.00;1.00;;;5.10;99.90;;;;;;10089889;28;20030;-66
2023/03/11 01:23:53;;;;;;;1.73;0.88;;;5.10;99.90;;;;;;10085322;28;20037;-65
2023/03/11 01:28:43;;;;;;;2.92;0.90;;;5.00;99.90;;;;;;10052841;28;20045;-66
2023/03/11 01:33:34;;;;;;;4.35;1.00;;;5.00;99.90;;;;;;10073300;28;20036;-66
2023/03/11 01:38:25;;;;;;;1.38;0.70;;;5.00;99.90;;;;;;10070812;28;20041;-65
2023/03/11 01:43:40;;;;;;;1.00;0.65;;;4.90;99.90;;;;;;10073672;28;20083;-66
2023/03/11 01:48:31;;;;;;;1.30;1.03;;;5.00;99.90;;;;;;10073686;28;20033;-63
2023/03/11 01:53:23;;;;;;;14.15;1.63;;;4.90;99.90;;;;;;10099091;28;20565;-66
2023/03/11 01:58:19;;;;;;;1.90;1.00;;;4.90;99.90;;;;;;10105120;28;20079;-65
2023/03/11 02:03:48;;;;;;;1.42;0.73;;;4.90;99.90;;;;;;10091610;28;20245;-67
2023/03/11 02:08:40;;;;;;;1.92;0.98;;;4.80;99.90;;;;;;9970106;28;20194;-65
2023/03/11 02:13:34;;;;;;;3.20;1.00;;;4.80;99.90;;;;;;10068946;28;20033;-65
2023/03/11 02:18:24;;;;;;;0.98;0.50;;;4.70;99.90;;;;;;10091523;28;20068;-65
2023/03/11 02:23:17;;;;;;;1.45;1.10;;;4.60;99.90;;;;;;10104546;28;20025;-64
2023/03/11 02:28:11;;;;;;;1.65;0.80;;;4.50;99.90;;;;;;10088571;28;20044;-64
2023/03/11 02:33:02;;;;;;;3.03;0.85;;;4.50;99.90;;;;;;10104351;28;20157;-64
2023/03/11 02:37:53;;;;;;;2.05;1.05;;;4.40;99.90;;;;;;10102400;28;20453;-64
2023/03/11 02:42:44;;;;;;;3.08;1.15;;;4.40;99.90;;;;;;10100920;28;20108;-66
2023/03/11 02:47:36;;;;;;;2.95;0.57;;;4.50;99.90;;;;;;10087194;28;20522;-65
2023/03/11 02:52:28;;;;;;;0.93;0.90;;;4.60;99.90;;;;;;10102882;28;20017;-65
2023/03/11 02:57:18;;;;;;;1.50;0.95;;;4.60;99.90;;;;;;10103048;28;20051;-65
2023/03/11 03:02:09;;;;;;;1.00;0.88;;;4.60;99.90;;;;;;10094601;28;20124;-64
2023/03/11 03:07:00;;;;;;;1.75;0.65;;;4.70;99.90;;;;;;10100424;28;20037;-64
2023/03/11 03:11:50;;;;;;;1.23;1.08;;;4.60;99.90;;;;;;10085676;28;20421;-64
2023/03/11 03:16:41;;;;;;;1.15;0.65;;;4.50;99.90;;;;;;10103852;28;20036;-65
2023/03/11 03:21:31;;;;;;;2.30;1.05;;;4.30;99.90;;;;;;10086064;28;20097;-65
2023/03/11 03:26:22;;;;;;;0.85;0.63;;;4.40;99.90;;;;;;10088235;28;20037;-64
2023/03/11 03:31:13;;;;;;;3.50;0.80;;;4.40;99.90;;;;;;10102293;28;20371;-65
2023/03/11 03:36:08;;;;;;;2.83;0.80;;;4.30;99.90;;;;;;10083146;28;20033;-65
2023/03/11 03:40:59;;;;;;;3.95;1.00;;;4.30;99.90;;;;;;10097139;28;20012;-64
2023/03/11 03:46:03;;;;;;;1.63;0.70;;;4.30;99.90;;;;;;10094027;28;20049;-63
2023/03/11 03:50:54;;;;;;;2.42;0.68;;;4.20;99.90;;;;;;10098049;28;20048;-63
2023/03/11 03:55:45;;;;;;;1.50;0.90;;;4.20;99.90;;;;;;10099825;28;20066;-64
2023/03/11 04:00:35;;;;;;;2.40;1.00;;;4.10;99.90;;;;;;10085723;28;20091;-64
2023/03/11 04:05:27;;;;;;;3.47;1.60;;;4.10;99.90;;;;;;10089919;28;20056;-64
2023/03/11 04:10:18;;;;;;;2.15;0.90;;;4.10;99.90;;;;;;10070729;28;20115;-66
2023/03/11 04:15:09;;;;;;;1.70;0.80;;;4.00;99.90;;;;;;10075257;28;20041;-66
2023/03/11 04:20:00;;;;;;;1.02;0.90;;;4.00;99.90;;;;;;10084319;28;20154;-67
2023/03/11 04:24:50;;;;;;;2.05;0.60;;;3.90;99.90;;;;;;10073638;28;20037;-64
2023/03/11 04:29:41;;;;;;;2.53;0.77;;;3.90;99.90;;;;;;10095914;28;20064;-63
2023/03/11 04:34:32;;;;;;;2.75;0.98;;;3.90;99.90;;;;;;10089375;28;20037;-63
2023/03/11 04:39:22;;;;;;;3.08;1.10;;;3.80;99.90;;;;;;10082721;28;20014;-62
2023/03/11 04:44:13;;;;;;;2.00;0.70;;;3.80;99.90;;;;;;10096904;28;20124;-63
2023/03/11 04:49:03;;;;;;;4.47;0.93;;;3.90;99.90;;;;;;10079822;28;20045;-62
2023/03/11 04:53:54;;;;;;;3.92;1.05;;;3.80;99.90;;;;;;10097104;28;20056;-62
2023/03/11 04:58:45;;;;;;;2.05;1.17;;;3.70;99.90;;;;;;10095156;28;20561;-65
2023/03/11 05:03:36;;;;;;;1.17;0.93;;;3.80;99.90;;;;;;10086380;28;20053;-65
2023/03/11 05:08:26;;;;;;;3.10;0.70;;;3.80;99.90;;;;;;10082562;28;20037;-64
2023/03/11 05:13:17;;;;;;;3.53;0.70;;;3.70;99.90;;;;;;10094100;28;20032;-62
2023/03/11 05:18:08;;;;;;;1.73;0.82;;;3.70;99.90;;;;;;10096631;28;20032;-65
2023/03/11 05:22:59;;;;;;;3.95;0.80;;;3.70;99.90;;;;;;10096994;28;20017;-65
2023/03/11 05:27:49;;;;;;;1.80;0.40;;;3.80;99.90;;;;;;10084170;28;20060;-63
2023/03/11 05:32:40;;;;;;;1.27;0.88;;;3.70;99.90;;;;;;10080385;28;20450;-62
2023/03/11 05:37:31;;;;;;;5.20;0.77;;;3.70;99.90;;;;;;10091510;28;20082;-63
2023/03/11 05:42:21;;;;;;;0.80;0.80;;;3.70;99.90;;;;;;10105935;28;20099;-65
2023/03/11 05:47:12;;;;;;;2.30;0.70;;;3.80;99.90;;;;;;10100661;28;20060;-63
2023/03/11 05:52:03;;;;;;;2.05;1.00;;;3.70;99.90;;;;;;10104665;28;20100;-64
2023/03/11 05:56:54;;;;;;;0.68;0.57;;;3.60;99.90;;;;;;10105441;28;20210;-65
2023/03/11 06:01:45;;;;;;;1.83;0.50;;;3.70;99.90;;;;;;10093217;28;20025;-65
2023/03/11 06:06:37;;;;;;;3.13;0.70;;;3.80;99.90;;;;;;10067027;28;20423;-64
2023/03/11 06:11:27;;;;;;;1.95;0.70;;;3.90;99.90;;;;;;10069712;28;20021;-63
2023/03/11 06:16:18;;;;;;;0.60;0.47;;;3.90;99.90;;;;;;10100479;28;20499;-62
2023/03/11 06:21:18;;;;;;;2.50;1.08;;;3.80;99.90;;;;;;10088244;28;20033;-63
2023/03/11 06:26:13;;;;;;;2.00;1.10;;;3.80;99.90;;;;;;10080485;28;20033;-64
2023/03/11 06:31:12;;;;;;;1.38;0.93;;;3.90;99.90;;;;;;10104740;28;20078;-63
2023/03/11 06:36:04;;;;;;;0.50;0.50;;;3.90;99.90;;;;;;10095143;28;20037;-64
2023/03/11 06:40:59;;;;;;;2.42;1.00;;;4.00;99.90;;;;;;10085932;28;20399;-62
2023/03/11 06:45:49;;;;;;;0.88;0.80;;;4.10;99.90;;;;;;10098584;28;20565;-62
2023/03/11 06:50:40;;;;;;;2.50;0.70;;;4.00;99.90;;;;;;10088496;28;20036;-63
2023/03/11 06:55:31;;;;;;;3.03;1.88;;;4.00;99.90;;;;;;10100702;28;20126;-62
2023/03/11 07:00:22;;;;;;;4.68;1.08;;;4.00;99.90;;;;;;10089725;28;20110;-62
2023/03/11 07:05:13;;;;;;;0.88;0.75;;;4.00;99.90;;;;;;10103676;28;20021;-64
2023/03/11 07:10:04;;;;;;;3.30;1.00;;;4.00;99.90;;;;;;10090424;28;20554;-64
2023/03/11 07:14:56;;;;;;;0.95;0.77;;;4.00;99.90;;;;;;10103219;28;20029;-63
2023/03/11 07:19:46;;;;;;;1.70;0.77;;;4.10;99.90;;;;;;10100365;28;20124;-63
2023/03/11 07:24:37;;;;;;;2.03;0.93;;;4.20;99.90;;;;;;10092305;28;20547;-64
2023/03/11 07:29:27;;;;;;;1.58;1.00;;;4.40;99.90;;;;;;10097846;28;20037;-63
2023/03/11 07:34:18;;;;;;;2.65;0.65;;;4.50;99.90;;;;;;10101060;28;20411;-66
2023/03/11 07:39:15;;;;;;;2.35;0.82;;;4.50;99.90;;;;;;10079582;28;20033;-64
2023/03/11 07:44:05;;;;;;;2.95;0.70;;;4.60;99.90;;;;;;10100434;28;20426;-66
2023/03/11 07:48:56;;;;;;;3.30;1.08;;;4.80;99.90;;;;;;10094984;28;20071;-64
2023/03/11 07:53:48;;;;;;;3.55;1.42;;;4.70;99.90;;;;;;10088801;28;20045;-65
2023/03/11 07:58:39;;;;;;;3.05;0.70;;;4.50;99.90;;;;;;10098164;28;20092;-64
2023/03/11 08:03:29;;;;;;;2.47;1.00;;;4.40;99.90;;;;;;10096671;28;20560;-65
2023/03/11 08:08:20;;;;;;;3.60;1.35;;;4.50;99.90;;;;;;10093885;28;20033;-65
2023/03/11 08:13:10;;;;;;;5.43;1.00;;;4.60;99.90;;;;;;10096952;28;20025;-63
2023/03/11 08:18:01;;;;;;;5.93;1.10;;;4.40;99.90;;;;;;10097611;28;20487;-65
2023/03/11 08:22:52;;;;;;;1.77;0.65;;;4.50;99.90;;;;;;10100927;28;20025;-63
2023/03/11 08:27:42;;;;;;;2.83;0.60;;;4.40;99.70;;;;;;10086088;28;20091;-62
2023/03/11 08:32:33;;;;;;;1.92;0.57;;;4.50;99.70;;;;;;10100145;28;20523;-64
2023/03/11 08:37:24;;;;;;;2.65;1.00;;;4.60;99.60;;;;;;10087247;28;20040;-65
2023/03/11 08:42:16;;;;;;;3.65;0.90;;;4.70;99.30;;;;;;10092237;28;20064;-64
2023/03/11 08:47:07;;;;;;;2.45;0.88;;;4.80;99.50;;;;;;10087515;28;20108;-63
2023/03/11 08:51:57;;;;;;;3.10;1.20;;;4.90;99.30;;;;;;10096765;28;20088;-65
2023/03/11 08:56:48;;;;;;;1.67;0.85;;;5.10;99.50;;;;;;10078855;28;20487;-63
2023/03/11 09:01:39;;;;;;;3.00;0.70;;;5.10;99.20;;;;;;10093162;28;20403;-63
2023/03/11 09:06:29;;;;;;;1.50;0.90;;;5.10;99.00;;;;;;10100438;28;20110;-64
2023/03/11 09:11:21;;;;;;;3.33;1.10;;;5.20;98.90;;;;;;10086489;28;20025;-65
2023/03/11 09:16:15;;;;;;;2.85;1.10;;;5.20;98.90;;;;;;10098904;28;20433;-64
2023/03/11 09:21:05;;;;;;;7.38;1.92;;;5.50;99.10;;;;;;10094339;28;20033;-63
2023/03/11 09:25:56;;;;;;;4.75;1.77;;;5.80;98.70;;;;;;10072521;28;20041;-64
2023/03/11 09:30:46;;;;;;;3.42;1.20;;;6.00;98.60;;;;;;10056395;28;20036;-66
2023/03/11 09:35:38;;;;;;;4.65;1.52;;;6.00;98.50;;;;;;10097235;22;20075;-64
2023/03/11 09:40:48;;;;;;;2.67;1.30;;;5.90;98.50;;;;;;10103905;28;20036;-62
2023/03/11 09:45:46;;;;;;;2.35;1.30;;;5.70;98.50;;;;;;10111383;28;20449;-62
2023/03/11 09:51:00;;;;;;;2.40;0.93;;;5.90;98.40;;;;;;10122571;28;20441;-62
2023/03/11 09:55:53;;;;;;;0.98;0.80;;;6.20;98.20;;;;;;10080096;28;20110;-63
2023/03/11 10:00:45;;;;;;;4.00;0.73;;;6.70;98.10;;;;;;10138330;28;20090;-63
2023/03/11 10:05:37;;;;;;;1.92;0.80;;;6.80;98.10;;;;;;10126180;28;20067;-63
2023/03/11 10:10:34;;;;;;;2.10;1.40;;;6.60;98.00;;;;;;10132238;28;20100;-61
2023/03/11 10:15:34;;;;;;;2.05;0.88;;;6.70;97.90;;;;;;10140684;28;20024;-64
2023/03/11 10:20:41;;;;;;;3.40;0.90;;;6.80;97.80;;;;;;10138887;28;20025;-61
2023/03/11 10:26:04;;;;;;;4.68;1.45;;;6.70;97.50;;;;;;10122941;28;20078;-61
2023/03/11 10:31:17;;;;;;;6.50;0.82;;;6.30;97.40;;;;;;10142981;28;20555;-61
2023/03/11 10:36:17;;;;;;;4.18;0.95;;;6.40;97.10;;;;;;10143796;28;20128;-61
2023/03/11 10:41:33;;;;;;;3.67;1.15;;;6.00;97.00;;;;;;10125281;28;20029;-61
2023/03/11 10:46:27;;;;;;;2.55;1.00;;;6.00;97.00;;;;;;10126152;28;20447;-62
2023/03/11 10:51:25;;;;;;;2.10;0.70;;;6.10;96.70;;;;;;10142735;28;20119;-62
2023/03/11 10:56:28;;;;;;;3.28;0.80;;;6.40;96.50;;;;;;10143403;28;20117;-62
2023/03/11 11:01:20;;;;;;;5.82;1.50;;;6.60;96.30;;;;;;10132152;28;20031;-62
2023/03/11 11:06:49;;;;;;;4.57;1.30;;;6.80;96.20;;;;;;10141892;28;20037;-62
2023/03/11 11:11:41;;;;;;;2.25;0.80;;;7.10;95.70;;;;;;9991026;28;20026;-62
2023/03/11 11:16:33;;;;;;;3.03;0.95;;;7.20;96.10;;;;;;10105649;28;20041;-63
2023/03/11 11:21:32;;;;;;;2.20;0.85;;;7.30;95.80;;;;;;10128072;28;20049;-63
2023/03/11 11:26:24;;;;;;;3.92;1.13;;;7.20;95.60;;;;;;10134560;28;20542;-62
2023/03/11 11:31:23;;;;;;;3.35;1.15;;;7.00;95.40;;;;;;10137636;28;20032;-62
2023/03/11 11:36:15;;;;;;;1.45;0.80;;;7.20;95.30;;;;;;10131076;28;20048;-61
2023/03/11 11:41:08;;;;;;;3.13;1.00;;;7.10;95.20;;;;;;10116804;28;20506;-64
2023/03/11 11:46:04;;;;;;;1.75;0.80;;;7.20;94.80;;;;;;10098356;22;20061;-63
2023/03/11 11:51:01;;;;;;;2.85;1.00;;;7.10;94.50;;;;;;10081651;28;20017;-65
2023/03/11 11:55:53;;;;;;;1.10;0.80;;;7.10;94.50;;;;;;10086730;28;20029;-64
2023/03/11 12:01:12;;;;;;;4.90;1.10;;;7.00;94.10;;;;;;10101013;28;20455;-64
2023/03/11 12:06:23;;;;;;;2.83;0.93;;;7.20;93.80;;;;;;10075384;28;20529;-65
2023/03/11 12:11:31;;;;;;;2.15;1.25;;;7.30;93.40;;;;;;10089022;28;20023;-64
2023/03/11 12:16:37;;;;;;;5.20;2.25;;;7.40;93.10;;;;;;10100678;28;20471;-63
2023/03/11 12:21:44;;;;;;;2.80;0.95;;;7.80;93.00;;;;;;10084591;28;20022;-64
2023/03/11 12:26:38;;;;;;;5.40;1.55;;;8.00;92.50;;;;;;10086968;28;20032;-64
2023/03/11 12:31:37;;;;;;;2.60;1.00;;;8.30;92.50;;;;;;10099978;28;20043;-63
2023/03/11 12:36:32;;;;;;;2.08;0.80;;;8.30;92.20;;;;;;10090845;28;20028;-64
2023/03/11 12:41:30;;;;;;;2.77;1.20;;;8.40;92.20;;;;;;10086733;28;20215;-64
2023/03/11 12:46:54;;;;;;;1.85;1.50;;;8.30;91.90;;;;;;10094653;28;20299;-65
2023/03/11 12:52:07;;;;;;;1.77;0.85;;;8.40;91.60;;;;;;10076482;28;20025;-68
2023/03/11 12:57:15;;;;;;;3.05;1.40;;;8.70;91.60;;;;;;10098658;28;20475;-65
2023/03/11 13:02:29;;;;;;;1.80;1.10;;;9.20;91.80;;;;;;10098631;28;20100;-64
2023/03/11 13:07:39;;;;;;;1.50;0.60;;;9.40;91.90;;;;;;10082612;28;20368;-65
2023/03/11 13:12:50;;;;;;;5.07;1.25;;;9.80;91.80;;;;;;10090806;28;20032;-64
2023/03/11 13:17:41;;;;;;;4.18;1.05;;;9.90;91.40;;;;;;10097194;28;20190;-64
2023/03/11 13:22:51;;;;;;;2.40;1.02;;;10.40;92.30;;;;;;10064809;28;20063;-64
2023/03/11 13:27:46;;;;;;;7.28;1.00;;;10.50;92.00;;;;;;10048580;28;20065;-63
2023/03/11 13:32:45;;;;;;;1.88;0.93;;;11.20;92.80;;;;;;10068553;28;20037;-63
2023/03/11 13:38:01;;;;;;;2.20;1.10;;;12.00;93.00;;;;;;10076355;28;20091;-64
2023/03/11 13:42:56;;;;;;;4.95;1.40;;;12.40;92.20;;;;;;10072148;28;20029;-64
2023/03/11 13:47:48;;;;;;;4.47;1.30;;;12.40;93.10;;;;;;10073078;28;20503;-64
2023/03/11 13:52:46;;;;;;;2.17;1.00;;;13.00;93.00;;;;;;10090612;28;20125;-65
2023/03/11 13:57:37;;;;;;;2.47;0.93;;;13.60;92.00;;;;;;10105724;28;20029;-65
2023/03/11 14:02:28;;;;;;;5.40;1.50;;;14.30;91.40;;;;;;10081024;28;20516;-64
2023/03/11 14:07:28;;;;;;;1.80;1.02;;;14.20;90.50;;;;;;10104222;28;20093;-64
2023/03/11 14:12:18;;;;;;;1.70;0.95;;;14.70;88.90;;;;;;10090071;28;20074;-62
2023/03/11 14:17:15;;;;;;;1.83;1.10;;;14.10;87.90;;;;;;10090908;28;20373;-64
2023/03/11 14:22:09;;;;;;;2.80;1.05;;;12.70;85.90;;;;;;10084850;28;20021;-63
2023/03/11 14:27:03;;;;;;;3.20;1.23;;;13.30;85.10;;;;;;10088305;28;20561;-65
2023/03/11 14:31:54;;;;;;;2.67;1.63;;;13.90;83.40;;;;;;10090860;28;20789;-64
2023/03/11 14:36:51;;;;;;;6.28;3.15;;;14.00;82.50;;;;;;10104598;28;20029;-65
2023/03/11 14:41:41;;;;;;;3.00;1.27;;;14.30;81.60;;;;;;10094405;28;20057;-65
2023/03/11 14:46:32;;;;;;;2.03;1.30;;;13.00;80.90;;;;;;10081662;28;20044;-66
2023/03/11 14:51:28;;;;;;;1.60;0.82;;;11.80;80.50;;;;;;10062877;28;20373;-64
2023/03/11 14:56:21;;;;;;;1.45;1.30;;;11.10;79.70;;;;;;10104116;28;20062;-64
2023/03/11 15:01:22;;;;;;;2.90;1.30;;;10.40;79.40;;;;;;10089330;28;20143;-64
2023/03/11 15:06:19;;;;;;;1.10;0.77;;;10.10;78.60;;;;;;10103525;28;20537;-64
2023/03/11 15:11:09;;;;;;;3.78;1.00;;;9.80;78.20;;;;;;10094363;28;20387;-65
2023/03/11 15:16:03;;;;;;;4.32;1.27;;;9.70;78.00;;;;;;10099190;28;20021;-64
2023/03/11 15:21:05;;;;;;;2.53;1.05;;;9.60;77.90;;;;;;10092463;28;20036;-63
2023/03/11 15:25:55;;;;;;;2.78;1.15;;;9.30;77.70;;;;;;10070039;28;20037;-65
2023/03/11 15:30:46;;;;;;;2.67;1.10;;;9.30;77.90;;;;;;10102213;28;20083;-63
2023/03/11 15:35:46;;;;;;;1.75;1.00;;;9.30;77.70;;;;;;10102423;28;20033;-63
2023/03/11 15:40:38;;;;;;;1.50;0.82;;;9.40;77.60;;;;;;10080126;28;20029;-63
2023/03/11 15:45:29;;;;;;;2.17;1.35;;;9.40;77.50;;;;;;10089087;28;20515;-63
2023/03/11 15:50:23;;;;;;;2.80;1.52;;;9.20;77.60;;;;;;10053876;28;20051;-66
2023/03/11 15:55:13;;;;;;;4.55;1.80;;;9.30;77.70;;;;;;10097733;28;20100;-64
2023/03/11 16:00:14;;;;;;;4.57;1.38;;;9.70;78.00;;;;;;10101530;28;20108;-65
2023/03/11 16:05:15;;;;;;;2.58;1.83;;;9.50;78.10;;;;;;10101321;28;20036;-65
2023/03/11 16:10:08;;;;;;;2.55;1.48;;;9.50;78.20;;;;;;10083985;28;20056;-65
2023/03/11 16:14:58;;;;;;;3.85;1.48;;;9.50;78.60;;;;;;10097810;28;20388;-65
2023/03/11 16:19:49;;;;;;;5.00;1.58;;;9.30;78.60;;;;;;10072953;28;20025;-66
2023/03/11 16:24:40;;;;;;;2.00;1.00;;;9.20;78.90;;;;;;10075617;28;20040;-64
2023/03/11 16:29:32;;;;;;;2.38;1.60;;;9.20;79.10;;;;;;10100000;28;20043;-65
2023/03/11 16:34:22;;;;;;;2.85;1.10;;;9.10;79.00;;;;;;10099861;28;20025;-64
2023/03/11 16:39:13;;;;;;;2.88;1.63;;;9.00;79.10;;;;;;10093829;28;20114;-64
2023/03/11 16:44:04;;;;;;;2.60;1.48;;;8.90;79.10;;;;;;10087080;28;20419;-65
2023/03/11 16:48:55;;;;;;;1.33;0.88;;;8.90;79.30;;;;;;10068047;28;20465;-65
2023/03/11 16:53:45;;;;;;;1.30;1.05;;;8.90;79.40;;;;;;10091333;28;20021;-64
2023/03/11 16:58:36;;;;;;;3.60;1.30;;;8.90;79.40;;;;;;10099545;28;20110;-66
2023/03/11 17:03:26;;;;;;;0.98;0.75;;;8.80;79.40;;;;;;10098762;28;20025;-64
2023/03/11 17:08:17;;;;;;;3.47;1.35;;;8.70;79.40;;;;;;10081296;28;20123;-64
2023/03/11 17:13:09;;;;;;;4.53;1.75;;;8.70;79.50;;;;;;10098942;28;20025;-63
2023/03/11 17:18:01;;;;;;;2.58;1.83;;;8.70;79.50;;;;;;10085933;28;20025;-63
2023/03/11 17:22:51;;;;;;;6.35;0.93;;;8.70;79.50;;;;;;10071881;28;20026;-66
2023/03/11 17:27:42;;;;;;;1.83;1.13;;;8.60;79.40;;;;;;10077631;28;20409;-65
2023/03/11 17:32:33;;;;;;;2.38;1.50;;;8.50;79.40;;;;;;10072405;28;20033;-66
2023/03/11 17:37:24;;;;;;;2.47;0.90;;;8.50;79.50;;;;;;10085385;28;20040;-65
2023/03/11 17:42:14;;;;;;;1.35;1.00;;;8.40;79.50;;;;;;10074248;28;20018;-67
2023/03/11 17:47:05;;;;;;;2.53;0.95;;;8.30;79.70;;;;;;10074202;28;20419;-64
2023/03/11 17:51:56;;;;;;;3.92;1.40;;;8.10;79.90;;;;;;10076101;28;20039;-66
2023/03/11 17:56:46;;;;;;;0.93;0.80;;;8.00;80.00;;;;;;10097880;28;20032;-65
2023/03/11 18:01:37;;;;;;;4.00;1.73;;;7.90;80.60;;;;;;10095654;28;20029;-66
2023/03/11 18:06:28;;;;;;;1.08;0.85;;;7.90;80.00;;;;;;10095802;28;20041;-65
2023/03/11 18:11:21;;;;;;;4.32;1.60;;;7.90;80.00;;;;;;10072973;28;20515;-65
2023/03/11 18:16:18;;;;;;;3.88;1.23;;;7.90;80.10;;;;;;10089502;28;20028;-63
2023/03/11 18:21:21;;;;;;;4.65;1.75;;;8.00;80.10;;;;;;10083439;28;20141;-65
2023/03/11 18:26:14;;;;;;;7.80;2.90;;;7.90;80.20;;;;;;10083823;28;20072;-65
2023/03/11 18:31:11;;;;;;;7.00;3.08;;;7.90;80.30;;;;;;10084289;28;20491;-64
2023/03/11 18:36:28;;;;;;;3.13;1.80;;;7.80;80.40;;;;;;10101094;28;20021;-65
2023/03/11 18:41:19;;;;;;;4.35;2.00;;;7.60;80.40;;;;;;10080744;28;20115;-65
2023/03/11 18:46:15;;;;;;;4.18;2.40;;;7.60;80.50;;;;;;10093928;28;20132;-65
2023/03/11 18:51:07;;;;;;;5.10;1.42;;;7.50;80.50;;;;;;10083246;28;20033;-64
2023/03/11 18:56:03;;;;;;;4.13;2.30;;;7.40;80.60;;;;;;10102071;28;20059;-65
2023/03/11 19:00:54;;;;;;;4.78;2.10;;;7.30;80.70;;;;;;10100116;28;20441;-67
2023/03/11 19:05:49;;;;;;;3.95;2.20;;;7.30;80.80;;;;;;10102122;28;20032;-67
2023/03/11 19:10:40;;;;;;;4.18;2.08;;;7.20;80.80;;;;;;10078946;28;20112;-63
2023/03/11 19:15:31;;;;;;;3.83;2.38;;;7.20;81.10;;;;;;10099835;28;20071;-66
2023/03/11 19:20:24;;;;;;;5.22;2.25;;;7.20;81.10;;;;;;10097634;28;20025;-66
2023/03/11 19:25:15;;;;;;;3.97;2.13;;;7.20;81.10;;;;;;10085778;28;20029;-67
2023/03/11 19:30:06;;;;;;;6.20;2.67;;;7.20;81.30;;;;;;10102698;28;20175;-66
2023/03/11 19:34:57;;;;;;;7.43;1.85;;;7.10;81.40;;;;;;10101551;28;20099;-66
2023/03/11 19:39:47;;;;;;;3.90;2.13;;;7.00;81.40;;;;;;10094793;28;20159;-66
2023/03/11 19:44:38;;;;;;;5.22;2.15;;;7.10;81.50;;;;;;10076916;28;20423;-66
2023/03/11 19:49:29;;;;;;;6.47;2.20;;;7.10;81.60;;;;;;10070691;28;20336;-65
2023/03/11 19:54:19;;;;;;;7.00;2.60;;;6.90;81.80;;;;;;10085542;28;20017;-65
2023/03/11 19:59:10;;;;;;;7.53;2.63;;;6.70;82.30;;;;;;10074257;28;20407;-64
2023/03/11 20:04:01;;;;;;;3.33;2.08;;;6.70;82.50;;;;;;10074866;28;20108;-64
2023/03/11 20:08:52;;;;;;;4.28;1.67;;;6.50;82.90;;;;;;10096402;28;20124;-66
2023/03/11 20:13:42;;;;;;;4.30;1.73;;;6.40;83.60;;;;;;10101240;28;20454;-65
2023/03/11 20:18:33;;;;;;;3.25;2.10;;;6.30;84.20;;;;;;10101964;28;20451;-67
2023/03/11 20:23:24;;;;;;;8.43;2.30;;;6.30;84.40;;;;;;10090438;28;20027;-67
2023/03/11 20:28:15;;;;;;;4.13;1.55;;;6.20;84.90;;;;;;10100491;28;20041;-65
2023/03/11 20:33:06;;;;;;;5.10;1.77;;;6.00;85.80;;;;;;10099091;28;20021;-65
2023/03/11 20:37:58;;;;;;;3.70;2.38;;;5.90;86.50;;;;;;10091460;28;20040;-67
2023/03/11 20:42:48;;;;;;;3.85;1.92;;;5.80;87.10;;;;;;10080353;28;20247;-67
2023/03/11 20:47:42;;;;;;;7.05;2.22;;;5.80;87.20;;;;;;10081509;28;20530;-68
2023/03/11 20:52:34;;;;;;;2.92;1.90;;;5.80;87.30;;;;;;10079930;28;20037;-66
2023/03/11 20:57:25;;;;;;;5.75;2.45;;;5.70;87.90;;;;;;10099489;28;20029;-65
2023/03/11 21:02:15;;;;;;;2.85;1.75;;;5.60;88.20;;;;;;10076455;28;20021;-66
2023/03/11 21:07:06;;;;;;;2.88;1.98;;;5.70;88.60;;;;;;10060410;28;20396;-65
2023/03/11 21:11:57;;;;;;;3.28;1.83;;;5.60;88.70;;;;;;10074323;28;20029;-65
2023/03/11 21:16:48;;;;;;;3.88;2.10;;;5.70;88.90;;;;;;10082455;28;20040;-65
2023/03/11 21:21:39;;;;;;;5.93;2.30;;;5.80;88.60;;;;;;10063267;28;20257;-65
2023/03/11 21:26:30;;;;;;;4.55;1.85;;;5.70;88.60;;;;;;10089411;28;20385;-64
2023/03/11 21:31:22;;;;;;;5.18;1.95;;;5.70;88.60;;;;;;10096810;28;20017;-66
2023/03/11 21:36:15;;;;;;;4.95;2.03;;;5.70;88.90;;;;;;10097805;28;20071;-65
2023/03/11 21:41:25;;;;;;;3.10;1.88;;;5.70;88.80;;;;;;10095313;28;20021;-66
2023/03/11 21:46:19;;;;;;;4.85;2.53;;;5.60;88.90;;;;;;10065648;28;20515;-64
2023/03/11 21:51:10;;;;;;;3.90;2.20;;;5.60;89.00;;;;;;10077381;28;20510;-67
2023/03/11 21:56:02;;;;;;;1.85;1.48;;;5.50;89.20;;;;;;10081714;28;20033;-65
2023/03/11 22:00:53;;;;;;;5.50;2.22;;;5.50;89.20;;;;;;10080435;28;20025;-67
2023/03/11 22:05:43;;;;;;;5.90;2.33;;;5.50;89.40;;;;;;10097286;28;20033;-64
2023/03/11 22:10:34;;;;;;;3.13;1.92;;;5.50;89.40;;;;;;10093075;28;20037;-63
2023/03/11 22:15:25;;;;;;;4.88;1.65;;;5.50;89.50;;;;;;10091436;28;20115;-65
2023/03/11 22:20:15;;;;;;;3.05;1.58;;;5.40;89.70;;;;;;10099865;28;20017;-65
2023/03/11 22:25:07;;;;;;;5.53;1.98;;;5.40;89.80;;;;;;10086597;28;20491;-66
2023/03/11 22:29:57;;;;;;;6.80;2.58;;;5.40;89.80;;;;;;10100296;28;20442;-65
2023/03/11 22:34:48;;;;;;;3.40;2.15;;;5.40;90.00;;;;;;10103740;28;20046;-67
2023/03/11 22:39:39;;;;;;;5.35;2.65;;;5.40;90.10;;;;;;10103254;28;20031;-65
2023/03/11 22:44:29;;;;;;;5.03;2.38;;;5.50;90.20;;;;;;10076931;28;20414;-66
2023/03/11 22:49:20;;;;;;;3.63;1.98;;;5.50;90.20;;;;;;10086110;28;20033;-68
2023/03/11 22:54:11;;;;;;;7.60;2.90;;;5.50;90.30;;;;;;10096426;28;20029;-64
2023/03/11 22:59:02;;;;;;;5.35;2.65;;;5.40;90.40;;;;;;10083661;28;20029;-64
2023/03/11 23:03:52;;;;;;;4.57;3.05;;;5.40;90.40;;;;;;10096539;28;20414;-65
2023/03/11 23:08:44;;;;;;;4.88;3.35;;;5.40;90.50;;;;;;10097281;28;20040;-66
2023/03/11 23:13:35;;;;;;;9.07;2.92;;;5.30;90.50;;;;;;10098573;28;20017;-63
2023/03/11 23:18:26;;;;;;;4.32;2.33;;;5.30;90.50;;;;;;10102608;28;20115;-63
2023/03/11 23:23:16;;;;;;;3.88;2.53;;;5.50;90.50;;;;;;10074472;28;20161;-64
2023/03/11 23:28:07;;;;;;;4.88;2.38;;;5.40;90.40;;;;;;10094544;28;20041;-65
2023/03/11 23:32:58;;;;;;;6.47;2.50;;;5.30;90.60;;;;;;10101969;28;20492;-65
2023/03/11 23:37:50;;;;;;;7.03;3.45;;;5.10;90.50;;;;;;10095599;28;20451;-65
2023/03/11 23:42:40;;;;;;;4.05;2.45;;;5.10;90.60;;;;;;10085159;28;20021;-64
2023/03/11 23:47:31;;;;;;;5.07;3.10;;;5.00;90.70;;;;;;10082387;28;20049;-64
2023/03/11 23:52:22;;;;;;;4.40;2.45;;;5.00;90.70;;;;;;10078572;28;20031;-66
2023/03/11 23:57:12;;;;;;;5.30;3.13;;;5.00;90.80;;;;;;10100319;28;20062;-63
